sensor_id;sensor_type;location;lat;lon;timestamp;pressure;altitude;pressure_sealevel;temperature;humidity
7888;BME280;3989;48.810;9.208;2023-03-13T00:01:49;98333.88;;;4.93;100.00
7888;BME280;3989;48.810;9.208;2023-03-13T00:04:16;98332.94;;;5.02;100.00
7888;BME280;3989;48.810;9.208;2023-03-13T00:06:42;98365.69;;;5.26;100.00
7888;BME280;3989;48.810;9.208;2023-03-13T00:09:13;98373.31;;;5.29;100.00
7888;BME280;3989;48.810;9.208;2023-03-13T00:11:40;98358.09;;;5.32;100.00
7888;BME280;3989;48.810;9.208;2023-03-13T00:14:06;98319.25;;;5.06;100.00
7888;BME280;3989;48.810;9.208;2023-03-13T00:16:33;98357.66;;;5.36;100.00
7888;BME280;3989;48.810;9.208;2023-03-13T00:19:02;98357.34;;;5.39;100.00
7888;BME280;3989;48.810;9.208;2023-03-13T00:21:29;98347.72;;;5.38;100.00
7888;BME280;3989;48.810;9.208;2023-03-13T00:23:57;98253.16;;;4.81;100.00
7888;BME280;3989;48.810;9.208;2023-03-13T00:26:26;98336.81;;;5.41;100.00
7888;BME280;3989;48.810;9.208;2023-03-13T00:28:53;98199.13;;;4.57;100.00
7888;BME280;3989;48.810;9.208;2023-03-13T00:31:21;98305.34;;;5.30;100.00
7888;BME280;3989;48.810;9.208;2023-03-13T00:33:50;98346.88;;;5.63;100.00
7888;BME280;3989;48.810;9.208;2023-03-13T00:36:18;98316.84;;;5.47;100.00
7888;BME280;3989;48.810;9.208;2023-03-13T00:38:45;98299.13;;;5.39;100.00
7888;BME280;3989;48.810;9.208;2023-03-13T00:41:16;98335.81;;;5.68;100.00
7888;BME280;3989;48.810;9.208;2023-03-13T00:43:45;98339.63;;;5.73;100.00
7888;BME280;3989;48.810;9.208;2023-03-13T00:46:13;98340.28;;;5.75;100.00
7888;BME280;3989;48.810;9.208;2023-03-13T00:48:40;98284.25;;;5.46;100.00
7888;BME280;3989;48.810;9.208;2023-03-13T00:51:07;98324.78;;;5.80;100.00
7888;BME280;3989;48.810;9.208;2023-03-13T00:53:40;98304.88;;;5.68;100.00
7888;BME280;3989;48.810;9.208;2023-03-13T00:56:09;98311.53;;;5.80;100.00
7888;BME280;3989;48.810;9.208;2023-03-13T00:58:37;98321.91;;;6.00;100.00
7888;BME280;3989;48.810;9.208;2023-03-13T01:01:10;98324.03;;;6.04;100.00
7888;BME280;3989;48.810;9.208;2023-03-13T01:03:38;98289.75;;;5.95;100.00
7888;BME280;3989;48.810;9.208;2023-03-13T01:06:07;98310.66;;;6.06;100.00
7888;BME280;3989;48.810;9.208;2023-03-13T01:08:35;98305.38;;;6.14;100.00
7888;BME280;3989;48.810;9.208;2023-03-13T01:11:03;98280.84;;;6.04;100.00
7888;BME280;3989;48.810;9.208;2023-03-13T01:13:31;98226.78;;;5.72;100.00
7888;BME280;3989;48.810;9.208;2023-03-13T01:16:01;98237.22;;;5.74;100.00
7888;BME280;3989;48.810;9.208;2023-03-13T01:18:29;98239.72;;;5.83;100.00
7888;BME280;3989;48.810;9.208;2023-03-13T01:20:56;98271.06;;;6.04;100.00
7888;BME280;3989;48.810;9.208;2023-03-13T01:23:22;98281.03;;;6.10;100.00
7888;BME280;3989;48.810;9.208;2023-03-13T01:25:49;98271.25;;;6.11;100.00
7888;BME280;3989;48.810;9.208;2023-03-13T01:28:15;98230.31;;;5.89;100.00
7888;BME280;3989;48.810;9.208;2023-03-13T01:30:42;98291.78;;;6.09;100.00
7888;BME280;3989;48.810;9.208;2023-03-13T01:33:08;98250.38;;;6.00;100.00
7888;BME280;3989;48.810;9.208;2023-03-13T01:35:36;98231.66;;;5.93;100.00
7888;BME280;3989;48.810;9.208;2023-03-13T01:38:03;98103.75;;;5.18;100.00
7888;BME280;3989;48.810;9.208;2023-03-13T01:40:29;98242.78;;;6.13;100.00
7888;BME280;3989;48.810;9.208;2023-03-13T01:42:58;98179.47;;;5.77;100.00
7888;BME280;3989;48.810;9.208;2023-03-13T01:45:50;98235.16;;;6.18;100.00
7888;BME280;3989;48.810;9.208;2023-03-13T01:48:19;98227.91;;;6.20;100.00
7888;BME280;3989;48.810;9.208;2023-03-13T01:50:48;98123.84;;;5.61;100.00
7888;BME280;3989;48.810;9.208;2023-03-13T01:53:15;98205.69;;;6.21;100.00
7888;BME280;3989;48.810;9.208;2023-03-13T01:55:42;98217.94;;;6.38;100.00
7888;BME280;3989;48.810;9.208;2023-03-13T01:58:08;98199.06;;;6.41;100.00
7888;BME280;3989;48.810;9.208;2023-03-13T02:00:35;98207.50;;;6.61;100.00
7888;BME280;3989;48.810;9.208;2023-03-13T02:03:07;98173.53;;;6.56;100.00
7888;BME280;3989;48.810;9.208;2023-03-13T02:05:37;98196.03;;;6.84;100.00
7888;BME280;3989;48.810;9.208;2023-03-13T02:08:07;98165.50;;;6.88;100.00
7888;BME280;3989;48.810;9.208;2023-03-13T02:10:40;98030.66;;;6.22;100.00
7888;BME280;3989;48.810;9.208;2023-03-13T02:13:11;98014.44;;;6.17;100.00
7888;BME280;3989;48.810;9.208;2023-03-13T02:15:39;98135.47;;;6.96;100.00
7888;BME280;3989;48.810;9.208;2023-03-13T02:18:06;98175.50;;;7.25;100.00
7888;BME280;3989;48.810;9.208;2023-03-13T02:20:32;98145.53;;;7.17;100.00
7888;BME280;3989;48.810;9.208;2023-03-13T02:23:03;98169.28;;;7.41;100.00
7888;BME280;3989;48.810;9.208;2023-03-13T02:25:39;98176.88;;;7.52;100.00
7888;BME280;3989;48.810;9.208;2023-03-13T02:28:10;98166.03;;;7.62;100.00
7888;BME280;3989;48.810;9.208;2023-03-13T02:30:39;98165.59;;;7.73;100.00
7888;BME280;3989;48.810;9.208;2023-03-13T02:33:07;98170.88;;;7.81;100.00
7888;BME280;3989;48.810;9.208;2023-03-13T02:35:34;98166.06;;;7.84;100.00
7888;BME280;3989;48.810;9.208;2023-03-13T02:38:03;98153.41;;;7.86;100.00
7888;BME280;3989;48.810;9.208;2023-03-13T02:40:34;98079.34;;;7.46;100.00
7888;BME280;3989;48.810;9.208;2023-03-13T02:43:05;97994.41;;;6.93;100.00
7888;BME280;3989;48.810;9.208;2023-03-13T02:45:32;98080.69;;;7.65;100.00
7888;BME280;3989;48.810;9.208;2023-03-13T02:47:59;98130.09;;;7.97;100.00
7888;BME280;3989;48.810;9.208;2023-03-13T02:50:25;98131.75;;;7.98;100.00
7888;BME280;3989;48.810;9.208;2023-03-13T02:52:54;98112.50;;;7.96;100.00
7888;BME280;3989;48.810;9.208;2023-03-13T02:55:23;98108.00;;;7.96;100.00
7888;BME280;3989;48.810;9.208;2023-03-13T02:57:51;98104.34;;;7.97;100.00
7888;BME280;3989;48.810;9.208;2023-03-13T03:00:19;98102.06;;;7.94;100.00
7888;BME280;3989;48.810;9.208;2023-03-13T03:02:50;98092.00;;;8.04;100.00
7888;BME280;3989;48.810;9.208;2023-03-13T03:05:18;98090.97;;;8.05;100.00
7888;BME280;3989;48.810;9.208;2023-03-13T03:07:46;98071.28;;;8.00;100.00
7888;BME280;3989;48.810;9.208;2023-03-13T03:10:12;98069.34;;;7.93;100.00
7888;BME280;3989;48.810;9.208;2023-03-13T03:12:39;98074.03;;;8.06;100.00
7888;BME280;3989;48.810;9.208;2023-03-13T03:15:07;97990.09;;;7.60;100.00
7888;BME280;3989;48.810;9.208;2023-03-13T03:17:35;98061.84;;;8.12;100.00
7888;BME280;3989;48.810;9.208;2023-03-13T03:20:02;98080.03;;;8.23;100.00
7888;BME280;3989;48.810;9.208;2023-03-13T03:22:32;98065.44;;;8.19;100.00
7888;BME280;3989;48.810;9.208;2023-03-13T03:24:58;98072.59;;;8.18;100.00
7888;BME280;3989;48.810;9.208;2023-03-13T03:27:25;98073.94;;;8.14;100.00
7888;BME280;3989;48.810;9.208;2023-03-13T03:29:51;98034.97;;;7.92;100.00
7888;BME280;3989;48.810;9.208;2023-03-13T03:32:18;98055.16;;;8.01;100.00
7888;BME280;3989;48.810;9.208;2023-03-13T03:34:46;98059.66;;;8.01;100.00
7888;BME280;3989;48.810;9.208;2023-03-13T03:37:13;98047.50;;;7.83;100.00
7888;BME280;3989;48.810;9.208;2023-03-13T03:39:39;98063.84;;;7.95;100.00
7888;BME280;3989;48.810;9.208;2023-03-13T03:42:06;98028.81;;;7.77;100.00
7888;BME280;3989;48.810;9.208;2023-03-13T03:44:33;97993.25;;;7.40;100.00
7888;BME280;3989;48.810;9.208;2023-03-13T03:47:00;98048.34;;;7.84;100.00
7888;BME280;3989;48.810;9.208;2023-03-13T03:49:26;98027.75;;;7.63;100.00
7888;BME280;3989;48.810;9.208;2023-03-13T03:51:54;98040.50;;;7.68;100.00
7888;BME280;3989;48.810;9.208;2023-03-13T03:54:21;98043.63;;;7.71;100.00
7888;BME280;3989;48.810;9.208;2023-03-13T03:56:47;98032.94;;;7.57;100.00
7888;BME280;3989;48.810;9.208;2023-03-13T03:59:14;98036.50;;;7.72;100.00
7888;BME280;3989;48.810;9.208;2023-03-13T04:01:40;98019.31;;;7.60;100.00
7888;BME280;3989;48.810;9.208;2023-03-13T04:04:08;97964.06;;;7.18;100.00
7888;BME280;3989;48.810;9.208;2023-03-13T04:06:35;98003.63;;;7.50;100.00
7888;BME280;3989;48.810;9.208;2023-03-13T04:09:03;98022.63;;;7.62;100.00
7888;BME280;3989;48.810;9.208;2023-03-13T04:11:29;97963.22;;;7.40;100.00
7888;BME280;3989;48.810;9.208;2023-03-13T04:13:56;98032.50;;;7.90;100.00
7888;BME280;3989;48.810;9.208;2023-03-13T04:16:22;98015.47;;;7.85;100.00
7888;BME280;3989;48.810;9.208;2023-03-13T04:18:49;98010.06;;;7.93;100.00
7888;BME280;3989;48.810;9.208;2023-03-13T04:21:15;97946.94;;;7.80;100.00
7888;BME280;3989;48.810;9.208;2023-03-13T04:23:42;97992.84;;;8.18;100.00
7888;BME280;3989;48.810;9.208;2023-03-13T04:26:10;98009.84;;;8.61;100.00
7888;BME280;3989;48.810;9.208;2023-03-13T04:28:36;97988.81;;;8.81;100.00
7888;BME280;3989;48.810;9.208;2023-03-13T04:31:03;97970.59;;;8.99;100.00
7888;BME280;3989;48.810;9.208;2023-03-13T04:33:30;97979.00;;;9.38;100.00
7888;BME280;3989;48.810;9.208;2023-03-13T04:35:56;97996.31;;;9.98;100.00
7888;BME280;3989;48.810;9.208;2023-03-13T04:38:23;97993.88;;;10.31;100.00
7888;BME280;3989;48.810;9.208;2023-03-13T04:40:50;97990.75;;;10.55;100.00
7888;BME280;3989;48.810;9.208;2023-03-13T04:43:18;97982.63;;;10.76;100.00
7888;BME280;3989;48.810;9.208;2023-03-13T04:45:45;97999.75;;;10.95;100.00
7888;BME280;3989;48.810;9.208;2023-03-13T04:48:12;97998.75;;;11.09;100.00
7888;BME280;3989;48.810;9.208;2023-03-13T04:50:38;97997.53;;;11.18;100.00
7888;BME280;3989;48.810;9.208;2023-03-13T04:53:05;97997.16;;;11.28;100.00
7888;BME280;3989;48.810;9.208;2023-03-13T04:55:31;97997.38;;;11.33;100.00
7888;BME280;3989;48.810;9.208;2023-03-13T04:57:58;98004.19;;;11.48;100.00
7888;BME280;3989;48.810;9.208;2023-03-13T05:00:26;98006.88;;;11.48;100.00
7888;BME280;3989;48.810;9.208;2023-03-13T05:02:52;97984.03;;;11.33;100.00
7888;BME280;3989;48.810;9.208;2023-03-13T05:05:19;98001.72;;;11.40;100.00
7888;BME280;3989;48.810;9.208;2023-03-13T05:07:45;97998.22;;;11.40;100.00
7888;BME280;3989;48.810;9.208;2023-03-13T05:10:12;97951.13;;;11.13;100.00
7888;BME280;3989;48.810;9.208;2023-03-13T05:12:38;97951.09;;;11.06;100.00
7888;BME280;3989;48.810;9.208;2023-03-13T05:15:06;97977.88;;;11.32;100.00
7888;BME280;3989;48.810;9.208;2023-03-13T05:17:34;97922.13;;;11.03;100.00
7888;BME280;3989;48.810;9.208;2023-03-13T05:20:01;97862.91;;;10.60;100.00
7888;BME280;3989;48.810;9.208;2023-03-13T05:22:30;97803.31;;;10.27;100.00
7888;BME280;3989;48.810;9.208;2023-03-13T05:24:56;97972.91;;;11.23;100.00
7888;BME280;3989;48.810;9.208;2023-03-13T05:27:23;98013.66;;;11.51;100.00
7888;BME280;3989;48.810;9.208;2023-03-13T05:29:49;98007.91;;;11.54;100.00
7888;BME280;3989;48.810;9.208;2023-03-13T05:32:16;98004.81;;;11.57;100.00
7888;BME280;3989;48.810;9.208;2023-03-13T05:34:44;97935.31;;;11.18;100.00
7888;BME280;3989;48.810;9.208;2023-03-13T05:37:10;97982.41;;;11.58;100.00
7888;BME280;3989;48.810;9.208;2023-03-13T05:39:37;97966.59;;;11.37;100.00
7888;BME280;3989;48.810;9.208;2023-03-13T05:42:04;97979.53;;;11.53;100.00
7888;BME280;3989;48.810;9.208;2023-03-13T05:44:30;97959.00;;;11.40;100.00
7888;BME280;3989;48.810;9.208;2023-03-13T05:46:57;97975.22;;;11.52;100.00
7888;BME280;3989;48.810;9.208;2023-03-13T05:49:23;97958.34;;;11.45;100.00
7888;BME280;3989;48.810;9.208;2023-03-13T05:51:52;97980.34;;;11.60;100.00
7888;BME280;3989;48.810;9.208;2023-03-13T05:54:18;97976.03;;;11.52;100.00
7888;BME280;3989;48.810;9.208;2023-03-13T05:56:45;97986.94;;;11.57;100.00
7888;BME280;3989;48.810;9.208;2023-03-13T05:59:13;97984.69;;;11.61;100.00
7888;BME280;3989;48.810;9.208;2023-03-13T06:01:39;97965.78;;;11.49;100.00
7888;BME280;3989;48.810;9.208;2023-03-13T06:04:06;97927.53;;;11.42;100.00
7888;BME280;3989;48.810;9.208;2023-03-13T06:06:33;97935.56;;;11.49;100.00
7888;BME280;3989;48.810;9.208;2023-03-13T06:09:01;97980.63;;;11.78;100.00
7888;BME280;3989;48.810;9.208;2023-03-13T06:11:28;97931.88;;;11.56;100.00
7888;BME280;3989;48.810;9.208;2023-03-13T06:13:54;97899.56;;;11.38;100.00
7888;BME280;3989;48.810;9.208;2023-03-13T06:16:21;97989.06;;;11.95;100.00
7888;BME280;3989;48.810;9.208;2023-03-13T06:18:48;97978.97;;;12.03;100.00
7888;BME280;3989;48.810;9.208;2023-03-13T06:21:15;97929.16;;;11.70;100.00
7888;BME280;3989;48.810;9.208;2023-03-13T06:23:41;97942.97;;;11.80;100.00
7888;BME280;3989;48.810;9.208;2023-03-13T06:26:09;97966.59;;;12.09;100.00
7888;BME280;3989;48.810;9.208;2023-03-13T06:28:37;97973.78;;;12.22;100.00
7888;BME280;3989;48.810;9.208;2023-03-13T06:31:06;97967.19;;;12.31;100.00
7888;BME280;3989;48.810;9.208;2023-03-13T06:33:33;97929.13;;;12.16;100.00
7888;BME280;3989;48.810;9.208;2023-03-13T06:36:01;97912.06;;;12.17;100.00
7888;BME280;3989;48.810;9.208;2023-03-13T06:38:28;97976.31;;;12.74;100.00
7888;BME280;3989;48.810;9.208;2023-03-13T06:40:55;97946.31;;;12.59;100.00
7888;BME280;3989;48.810;9.208;2023-03-13T06:43:23;97969.03;;;12.94;100.00
7888;BME280;3989;48.810;9.208;2023-03-13T06:45:50;97979.47;;;13.02;100.00
7888;BME280;3989;48.810;9.208;2023-03-13T06:48:17;97971.25;;;13.04;100.00
7888;BME280;3989;48.810;9.208;2023-03-13T06:50:44;97974.50;;;13.06;100.00
7888;BME280;3989;48.810;9.208;2023-03-13T06:53:13;97949.88;;;12.91;100.00
7888;BME280;3989;48.810;9.208;2023-03-13T06:55:41;97935.53;;;12.79;100.00
7888;BME280;3989;48.810;9.208;2023-03-13T06:58:07;97974.56;;;12.99;100.00
7888;BME280;3989;48.810;9.208;2023-03-13T07:00:36;97978.50;;;12.90;100.00
7888;BME280;3989;48.810;9.208;2023-03-13T07:03:05;97968.47;;;12.86;100.00
7888;BME280;3989;48.810;9.208;2023-03-13T07:05:31;97992.44;;;13.05;100.00
7888;BME280;3989;48.810;9.208;2023-03-13T07:07:58;98001.09;;;13.07;100.00
7888;BME280;3989;48.810;9.208;2023-03-13T07:10:25;97942.75;;;12.72;100.00
7888;BME280;3989;48.810;9.208;2023-03-13T07:12:51;97997.00;;;13.11;100.00
7888;BME280;3989;48.810;9.208;2023-03-13T07:15:18;98002.34;;;13.11;100.00
7888;BME280;3989;48.810;9.208;2023-03-13T07:17:46;97997.59;;;13.13;100.00
7888;BME280;3989;48.810;9.208;2023-03-13T07:20:13;97992.25;;;13.13;100.00
7888;BME280;3989;48.810;9.208;2023-03-13T07:22:39;98014.25;;;13.15;100.00
7888;BME280;3989;48.810;9.208;2023-03-13T07:25:07;97999.44;;;13.13;100.00
7888;BME280;3989;48.810;9.208;2023-03-13T07:27:34;97980.56;;;12.95;100.00
7888;BME280;3989;48.810;9.208;2023-03-13T07:30:00;97984.50;;;12.92;100.00
7888;BME280;3989;48.810;9.208;2023-03-13T07:32:30;98010.81;;;13.08;100.00
7888;BME280;3989;48.810;9.208;2023-03-13T07:34:58;97977.06;;;12.94;100.00
7888;BME280;3989;48.810;9.208;2023-03-13T07:37:27;97975.81;;;12.97;100.00
7888;BME280;3989;48.810;9.208;2023-03-13T07:39:54;97992.25;;;13.07;100.00
7888;BME280;3989;48.810;9.208;2023-03-13T07:42:20;97949.13;;;12.71;100.00
7888;BME280;3989;48.810;9.208;2023-03-13T07:44:47;97977.19;;;13.06;100.00
7888;BME280;3989;48.810;9.208;2023-03-13T07:47:13;97916.03;;;12.65;100.00
7888;BME280;3989;48.810;9.208;2023-03-13T07:49:40;97972.25;;;13.09;100.00
7888;BME280;3989;48.810;9.208;2023-03-13T07:52:09;97913.69;;;12.82;100.00
7888;BME280;3989;48.810;9.208;2023-03-13T07:54:36;97966.88;;;13.16;100.00
7888;BME280;3989;48.810;9.208;2023-03-13T07:57:03;97958.41;;;13.19;100.00
7888;BME280;3989;48.810;9.208;2023-03-13T07:59:29;97910.94;;;12.95;100.00
7888;BME280;3989;48.810;9.208;2023-03-13T08:01:56;97952.69;;;13.47;100.00
7888;BME280;3989;48.810;9.208;2023-03-13T08:04:22;97919.06;;;13.44;100.00
7888;BME280;3989;48.810;9.208;2023-03-13T08:06:49;97946.44;;;13.78;100.00
7888;BME280;3989;48.810;9.208;2023-03-13T08:09:17;97906.28;;;13.71;100.00
7888;BME280;3989;48.810;9.208;2023-03-13T08:11:44;97940.78;;;14.10;100.00
7888;BME280;3989;48.810;9.208;2023-03-13T08:14:12;97918.88;;;14.13;100.00
7888;BME280;3989;48.810;9.208;2023-03-13T08:16:38;97843.06;;;13.82;100.00
7888;BME280;3989;48.810;9.208;2023-03-13T08:19:05;97861.13;;;14.11;100.00
7888;BME280;3989;48.810;9.208;2023-03-13T08:21:33;97911.47;;;14.70;100.00
7888;BME280;3989;48.810;9.208;2023-03-13T08:24:01;97910.38;;;14.89;100.00
7888;BME280;3989;48.810;9.208;2023-03-13T08:26:32;97909.00;;;14.98;100.00
7888;BME280;3989;48.810;9.208;2023-03-13T08:29:02;97896.41;;;14.99;100.00
7888;BME280;3989;48.810;9.208;2023-03-13T08:31:31;97879.59;;;15.03;100.00
7888;BME280;3989;48.810;9.208;2023-03-13T08:33:57;97909.56;;;15.18;100.00
7888;BME280;3989;48.810;9.208;2023-03-13T08:36:25;97912.47;;;15.29;100.00
7888;BME280;3989;48.810;9.208;2023-03-13T08:38:53;97922.97;;;15.48;100.00
7888;BME280;3989;48.810;9.208;2023-03-13T08:41:22;97899.78;;;15.36;100.00
7888;BME280;3989;48.810;9.208;2023-03-13T08:43:52;97836.00;;;15.01;100.00
7888;BME280;3989;48.810;9.208;2023-03-13T08:46:18;97911.53;;;15.53;100.00
7888;BME280;3989;48.810;9.208;2023-03-13T08:48:48;97918.19;;;15.50;100.00
7888;BME280;3989;48.810;9.208;2023-03-13T08:51:14;97871.94;;;15.18;100.00
7888;BME280;3989;48.810;9.208;2023-03-13T08:53:42;97925.69;;;15.60;100.00
7888;BME280;3989;48.810;9.208;2023-03-13T08:56:10;97919.34;;;15.54;100.00
7888;BME280;3989;48.810;9.208;2023-03-13T08:58:37;97925.25;;;15.74;100.00
7888;BME280;3989;48.810;9.208;2023-03-13T09:01:06;97883.38;;;15.67;100.00
7888;BME280;3989;48.810;9.208;2023-03-13T09:03:33;97908.66;;;16.01;100.00
7888;BME280;3989;48.810;9.208;2023-03-13T09:06:01;97863.50;;;15.56;100.00
7888;BME280;3989;48.810;9.208;2023-03-13T09:08:28;97884.44;;;15.66;100.00
7888;BME280;3989;48.810;9.208;2023-03-13T09:10:56;97889.34;;;15.81;100.00
7888;BME280;3989;48.810;9.208;2023-03-13T09:13:23;97912.88;;;16.08;100.00
7888;BME280;3989;48.810;9.208;2023-03-13T09:15:53;97927.47;;;16.01;100.00
7888;BME280;3989;48.810;9.208;2023-03-13T09:18:22;97845.84;;;15.60;100.00
7888;BME280;3989;48.810;9.208;2023-03-13T09:20:49;97917.44;;;16.08;100.00
7888;BME280;3989;48.810;9.208;2023-03-13T09:23:16;97904.66;;;16.26;100.00
7888;BME280;3989;48.810;9.208;2023-03-13T09:25:43;97868.97;;;16.08;99.43
7888;BME280;3989;48.810;9.208;2023-03-13T09:28:09;97905.31;;;16.45;97.73
7888;BME280;3989;48.810;9.208;2023-03-13T09:30:36;97902.28;;;16.53;95.49
7888;BME280;3989;48.810;9.208;2023-03-13T09:33:03;97918.81;;;16.57;95.85
7888;BME280;3989;48.810;9.208;2023-03-13T09:35:31;97890.84;;;16.35;94.07
7888;BME280;3989;48.810;9.208;2023-03-13T09:37:57;97909.56;;;16.41;94.38
7888;BME280;3989;48.810;9.208;2023-03-13T09:40:25;97918.09;;;16.50;95.01
7888;BME280;3989;48.810;9.208;2023-03-13T09:42:54;97935.41;;;16.42;95.31
7888;BME280;3989;48.810;9.208;2023-03-13T09:45:28;97918.94;;;16.27;97.04
7888;BME280;3989;48.810;9.208;2023-03-13T09:48:01;97918.72;;;16.17;96.73
7888;BME280;3989;48.810;9.208;2023-03-13T09:50:34;97869.91;;;15.90;98.74
7888;BME280;3989;48.810;9.208;2023-03-13T09:53:05;97817.06;;;15.84;97.18
7888;BME280;3989;48.810;9.208;2023-03-13T09:55:37;97914.03;;;16.87;92.83
7888;BME280;3989;48.810;9.208;2023-03-13T09:58:10;97879.44;;;16.96;86.44
7888;BME280;3989;48.810;9.208;2023-03-13T10:00:42;97899.94;;;17.25;84.98
7888;BME280;3989;48.810;9.208;2023-03-13T10:03:14;97890.69;;;17.21;83.46
7888;BME280;3989;48.810;9.208;2023-03-13T10:05:47;97892.06;;;17.23;84.26
7888;BME280;3989;48.810;9.208;2023-03-13T10:08:16;97885.44;;;17.14;83.84
7888;BME280;3989;48.810;9.208;2023-03-13T10:10:46;97874.13;;;17.01;86.52
7888;BME280;3989;48.810;9.208;2023-03-13T10:13:18;97882.56;;;16.76;88.57
7888;BME280;3989;48.810;9.208;2023-03-13T10:15:49;97871.72;;;16.59;89.97
7888;BME280;3989;48.810;9.208;2023-03-13T10:18:19;97873.47;;;16.42;89.61
7888;BME280;3989;48.810;9.208;2023-03-13T10:20:50;97775.06;;;15.95;90.01
7888;BME280;3989;48.810;9.208;2023-03-13T10:23:25;97855.38;;;16.77;89.88
7888;BME280;3989;48.810;9.208;2023-03-13T10:25:52;97837.28;;;17.06;84.70
7888;BME280;3989;48.810;9.208;2023-03-13T10:28:19;97851.97;;;17.44;79.29
7888;BME280;3989;48.810;9.208;2023-03-13T10:30:48;97826.75;;;17.66;73.92
7888;BME280;3989;48.810;9.208;2023-03-13T10:33:24;97842.78;;;18.11;71.30
7888;BME280;3989;48.810;9.208;2023-03-13T10:36:04;97851.56;;;18.45;65.94
7888;BME280;3989;48.810;9.208;2023-03-13T10:38:34;97857.66;;;18.74;63.33
7888;BME280;3989;48.810;9.208;2023-03-13T10:41:06;97858.13;;;18.71;61.65
7888;BME280;3989;48.810;9.208;2023-03-13T10:43:34;97859.66;;;18.83;63.13
7888;BME280;3989;48.810;9.208;2023-03-13T10:46:01;97787.69;;;18.56;61.05
7888;BME280;3989;48.810;9.208;2023-03-13T10:48:29;97842.38;;;18.63;60.92
7888;BME280;3989;48.810;9.208;2023-03-13T10:51:02;97851.53;;;18.62;63.31
7888;BME280;3989;48.810;9.208;2023-03-13T10:53:32;97846.25;;;18.72;62.74
7888;BME280;3989;48.810;9.208;2023-03-13T10:56:08;97819.94;;;18.62;62.34
7888;BME280;3989;48.810;9.208;2023-03-13T10:58:40;97812.44;;;18.48;62.21
7888;BME280;3989;48.810;9.208;2023-03-13T11:01:16;97828.69;;;18.74;62.45
7888;BME280;3989;48.810;9.208;2023-03-13T11:03:43;97831.00;;;18.87;62.51
7888;BME280;3989;48.810;9.208;2023-03-13T11:06:32;97825.28;;;18.84;61.07
7888;BME280;3989;48.810;9.208;2023-03-13T11:09:11;97836.41;;;18.87;60.27
7888;BME280;3989;48.810;9.208;2023-03-13T11:11:47;97800.63;;;18.75;61.70
7888;BME280;3989;48.810;9.208;2023-03-13T11:14:16;97808.34;;;18.94;60.58
7888;BME280;3989;48.810;9.208;2023-03-13T11:16:46;97813.53;;;18.95;61.48
7888;BME280;3989;48.810;9.208;2023-03-13T11:19:34;97773.91;;;18.79;61.26
7888;BME280;3989;48.810;9.208;2023-03-13T11:22:24;97813.50;;;19.22;60.22
7888;BME280;3989;48.810;9.208;2023-03-13T11:25:01;97787.66;;;19.36;59.40
7888;BME280;3989;48.810;9.208;2023-03-13T11:27:32;97804.28;;;19.18;57.92
7888;BME280;3989;48.810;9.208;2023-03-13T11:30:10;97708.22;;;18.52;57.63
7888;BME280;3989;48.810;9.208;2023-03-13T11:32:42;97784.84;;;19.26;58.60
7888;BME280;3989;48.810;9.208;2023-03-13T11:35:20;97716.28;;;19.42;56.96
7888;BME280;3989;48.810;9.208;2023-03-13T11:37:54;97755.59;;;19.97;55.49
7888;BME280;3989;48.810;9.208;2023-03-13T11:40:25;97698.53;;;19.51;55.45
7888;BME280;3989;48.810;9.208;2023-03-13T11:43:07;97752.84;;;19.91;54.47
7888;BME280;3989;48.810;9.208;2023-03-13T11:45:52;97696.47;;;19.73;54.33
7888;BME280;3989;48.810;9.208;2023-03-13T11:48:35;97693.00;;;19.88;54.83
7888;BME280;3989;48.810;9.208;2023-03-13T11:51:14;97646.06;;;19.62;53.71
7888;BME280;3989;48.810;9.208;2023-03-13T11:54:02;97659.69;;;19.82;53.11
7888;BME280;3989;48.810;9.208;2023-03-13T11:56:33;97673.69;;;19.69;52.53
7888;BME280;3989;48.810;9.208;2023-03-13T11:59:15;97709.47;;;19.76;54.10
7888;BME280;3989;48.810;9.208;2023-03-13T12:01:50;97652.47;;;19.41;54.64
7888;BME280;3989;48.810;9.208;2023-03-13T12:04:24;97629.19;;;19.40;54.70
7888;BME280;3989;48.810;9.208;2023-03-13T12:06:55;97664.81;;;19.79;54.41
7888;BME280;3989;48.810;9.208;2023-03-13T12:09:29;97675.44;;;19.96;54.08
7888;BME280;3989;48.810;9.208;2023-03-13T12:12:00;97656.75;;;19.94;53.22
7888;BME280;3989;48.810;9.208;2023-03-13T12:14:32;97662.16;;;19.94;53.40
7888;BME280;3989;48.810;9.208;2023-03-13T12:17:04;97654.63;;;20.16;53.24
7888;BME280;3989;48.810;9.208;2023-03-13T12:19:36;97646.63;;;20.41;51.30
7888;BME280;3989;48.810;9.208;2023-03-13T12:22:12;97639.81;;;20.39;51.93
7888;BME280;3989;48.810;9.208;2023-03-13T12:24:46;97592.63;;;20.25;51.76
7888;BME280;3989;48.810;9.208;2023-03-13T12:27:17;97596.94;;;20.26;51.29
7888;BME280;3989;48.810;9.208;2023-03-13T12:29:50;97596.19;;;20.30;50.50
7888;BME280;3989;48.810;9.208;2023-03-13T12:32:24;97583.41;;;20.26;51.53
7888;BME280;3989;48.810;9.208;2023-03-13T12:34:59;97570.94;;;20.20;50.92
7888;BME280;3989;48.810;9.208;2023-03-13T12:37:35;97588.63;;;20.37;51.29
7888;BME280;3989;48.810;9.208;2023-03-13T12:40:13;97518.16;;;20.12;51.19
7888;BME280;3989;48.810;9.208;2023-03-13T12:42:46;97579.66;;;20.62;50.83
7888;BME280;3989;48.810;9.208;2023-03-13T12:45:16;97547.94;;;20.63;49.73
7888;BME280;3989;48.810;9.208;2023-03-13T12:48:01;97532.53;;;20.43;49.21
7888;BME280;3989;48.810;9.208;2023-03-13T12:50:41;97523.31;;;20.54;49.39
7888;BME280;3989;48.810;9.208;2023-03-13T12:53:29;97528.44;;;20.66;48.73
7888;BME280;3989;48.810;9.208;2023-03-13T12:56:32;97507.25;;;20.83;48.89
7888;BME280;3989;48.810;9.208;2023-03-13T12:59:04;97518.84;;;21.14;47.63
7888;BME280;3989;48.810;9.208;2023-03-13T13:01:34;97477.66;;;20.97;47.38
7888;BME280;3989;48.810;9.208;2023-03-13T13:04:05;97456.75;;;21.02;47.44
7888;BME280;3989;48.810;9.208;2023-03-13T13:06:54;97501.53;;;21.59;47.25
7888;BME280;3989;48.810;9.208;2023-03-13T13:09:24;97417.56;;;21.33;46.08
7888;BME280;3989;48.810;9.208;2023-03-13T13:11:53;97443.38;;;21.70;46.12
7888;BME280;3989;48.810;9.208;2023-03-13T13:15:00;97471.41;;;22.04;44.75
7888;BME280;3989;48.810;9.208;2023-03-13T13:17:39;97447.50;;;22.06;44.71
7888;BME280;3989;48.810;9.208;2023-03-13T13:20:39;97456.31;;;22.50;44.63
7888;BME280;3989;48.810;9.208;2023-03-13T13:23:29;97412.31;;;22.48;44.13
7888;BME280;3989;48.810;9.208;2023-03-13T13:32:39;97428.97;;;22.13;43.68
7888;BME280;3989;48.810;9.208;2023-03-13T13:35:24;97423.75;;;22.17;43.92
7888;BME280;3989;48.810;9.208;2023-03-13T13:37:52;97359.25;;;21.98;43.57